createdAt,value
2023-04-15T00:00:49.740Z,76.31
2023-04-15T00:01:49.810Z,76.31
2023-04-15T00:02:49.884Z,76.14
2023-04-15T00:03:49.845Z,76.10
2023-04-15T00:04:50.002Z,75.90
2023-04-15T00:05:49.815Z,75.59
2023-04-15T00:06:49.802Z,75.28
2023-04-15T00:07:49.874Z,75.28
2023-04-15T00:08:49.855Z,75.28
2023-04-15T00:09:49.832Z,75.18
2023-04-15T00:10:49.897Z,75.38
2023-04-15T00:11:49.967Z,75.49
2023-04-15T00:12:49.991Z,75.38
2023-04-15T00:13:49.963Z,75.28
2023-04-15T00:14:49.955Z,75.18
2023-04-15T00:15:50.005Z,75.08
2023-04-15T00:16:50.134Z,75.08
2023-04-15T00:17:50.134Z,75.28
2023-04-15T00:18:50.113Z,75.49
2023-04-15T00:19:50.156Z,75.49
2023-04-15T00:20:50.235Z,75.59
2023-04-15T00:21:50.335Z,75.59
2023-04-15T00:22:50.345Z,75.59
2023-04-15T00:23:50.409Z,75.49
2023-04-15T00:24:50.456Z,75.28
2023-04-15T00:25:50.519Z,74.98
2023-04-15T00:26:50.574Z,74.66
2023-04-15T00:27:50.652Z,74.80
2023-04-15T00:28:50.722Z,75.01
2023-04-15T00:29:50.694Z,74.70
2023-04-15T00:30:50.819Z,74.91
2023-04-15T00:31:50.796Z,75.01
2023-04-15T00:32:50.969Z,75.21
2023-04-15T00:33:50.853Z,75.21
2023-04-15T00:34:50.923Z,75.52
2023-04-15T00:35:50.999Z,75.73
2023-04-15T00:36:51.049Z,76.24
2023-04-15T00:37:51.036Z,76.24
2023-04-15T00:38:51.012Z,76.45
2023-04-15T00:39:51.080Z,76.24
2023-04-15T00:40:51.153Z,75.83
2023-04-15T00:41:51.236Z,75.49
2023-04-15T00:42:51.222Z,75.38
2023-04-15T00:43:51.213Z,75.28
2023-04-15T00:44:51.307Z,75.18
2023-04-15T00:45:51.363Z,74.98
2023-04-15T00:46:51.326Z,75.11
2023-04-15T00:47:51.331Z,75.52
2023-04-15T00:48:51.388Z,75.83
2023-04-15T00:49:51.467Z,75.83
2023-04-15T00:50:51.458Z,76.04
2023-04-15T00:51:51.538Z,76.14
2023-04-15T00:52:51.522Z,76.28
2023-04-15T00:53:51.604Z,76.68
2023-04-15T00:54:51.691Z,77.10
2023-04-15T00:55:51.680Z,77.23
2023-04-15T00:56:51.681Z,77.34
2023-04-15T00:57:51.748Z,77.00
2023-04-15T00:58:51.746Z,77.23
2023-04-15T00:59:51.879Z,77.44
2023-04-15T01:00:51.827Z,77.65
2023-04-15T01:01:52.040Z,77.34
2023-04-15T01:02:51.939Z,77.44
2023-04-15T01:03:52.081Z,77.34
2023-04-15T01:04:51.936Z,77.85
2023-04-15T01:05:51.995Z,78.06
2023-04-15T01:06:52.012Z,77.85
2023-04-15T01:07:51.979Z,77.85
2023-04-15T01:08:51.981Z,77.65
2023-04-15T01:09:52.016Z,77.40
2023-04-15T01:10:51.999Z,77.20
2023-04-15T01:11:52.036Z,76.79
2023-04-15T01:12:52.075Z,77.10
2023-04-15T01:13:52.081Z,77.44
2023-04-15T01:14:52.102Z,78.12
2023-04-15T01:15:52.154Z,77.61
2023-04-15T01:16:52.160Z,77.71
2023-04-15T01:17:52.188Z,77.81
2023-04-15T01:18:52.181Z,78.53
2023-04-15T01:19:52.182Z,78.39
2023-04-15T01:20:52.169Z,78.39
2023-04-15T01:21:52.253Z,77.88
2023-04-15T01:22:52.263Z,77.68
2023-04-15T01:23:52.272Z,77.64
2023-04-15T01:24:52.291Z,77.33
2023-04-15T01:25:52.278Z,77.33
2023-04-15T01:26:52.367Z,77.68
2023-04-15T01:27:52.367Z,77.95
2023-04-15T01:28:52.346Z,77.64
2023-04-15T01:29:52.366Z,77.33
2023-04-15T01:30:52.364Z,77.33
2023-04-15T01:31:52.457Z,77.20
2023-04-15T01:32:52.401Z,76.78
2023-04-15T01:33:52.387Z,76.72
2023-04-15T01:34:52.398Z,77.03
2023-04-15T01:35:52.413Z,76.89
2023-04-15T01:36:52.470Z,76.58
2023-04-15T01:37:52.502Z,76.37
2023-04-15T01:38:52.492Z,76.62
2023-04-15T01:39:52.498Z,77.23
2023-04-15T01:40:52.531Z,77.13
2023-04-15T01:41:52.532Z,76.78
2023-04-15T01:42:52.536Z,76.78
2023-04-15T01:43:52.554Z,76.82
2023-04-15T01:44:52.564Z,76.78
2023-04-15T01:45:52.608Z,76.48
2023-04-15T01:46:52.709Z,76.37
2023-04-15T01:47:52.762Z,76.37
2023-04-15T01:48:52.648Z,75.96
2023-04-15T01:49:52.697Z,76.07
2023-04-15T01:50:52.725Z,76.17
2023-04-15T01:51:52.775Z,75.86
2023-04-15T01:52:52.817Z,76.17
2023-04-15T01:53:52.849Z,76.27
2023-04-15T01:54:52.885Z,76.27
2023-04-15T01:55:52.928Z,76.37
2023-04-15T01:56:52.967Z,76.27
2023-04-15T01:57:53.021Z,76.37
2023-04-15T01:58:53.067Z,76.27
2023-04-15T01:59:53.091Z,76.27
2023-04-15T02:00:53.145Z,76.48
2023-04-15T02:01:53.266Z,76.37
2023-04-15T02:02:53.250Z,76.48
2023-04-15T02:03:53.274Z,76.82
2023-04-15T02:04:53.238Z,77.23
2023-04-15T02:05:53.244Z,77.09
2023-04-15T02:06:53.262Z,76.68
2023-04-15T02:07:53.243Z,76.68
2023-04-15T02:08:53.226Z,76.78
2023-04-15T02:09:53.300Z,77.03
2023-04-15T02:10:53.294Z,77.20
2023-04-15T02:11:53.295Z,76.78
2023-04-15T02:12:53.295Z,76.58
2023-04-15T02:13:53.324Z,76.37
2023-04-15T02:14:53.354Z,76.17
2023-04-15T02:15:53.387Z,76.17
2023-04-15T02:16:53.503Z,76.27
2023-04-15T02:17:53.520Z,76.48
2023-04-15T02:18:53.493Z,76.68
2023-04-15T02:19:53.526Z,76.27
2023-04-15T02:20:53.548Z,76.48
2023-04-15T02:21:53.575Z,76.48
2023-04-15T02:22:53.589Z,76.17
2023-04-15T02:23:54.106Z,76.17
2023-04-15T02:24:53.619Z,76.58
2023-04-15T02:25:54.325Z,76.78
2023-04-15T02:26:53.615Z,76.89
2023-04-15T02:27:53.628Z,76.78
2023-04-15T02:28:53.700Z,76.58
2023-04-15T02:29:53.706Z,76.37
2023-04-15T02:30:53.766Z,76.89
2023-04-15T02:31:53.769Z,76.89
2023-04-15T02:32:53.781Z,76.72
2023-04-15T02:33:53.726Z,76.99
2023-04-15T02:34:53.753Z,76.68
2023-04-15T02:35:53.747Z,76.82
2023-04-15T02:36:53.828Z,76.99
2023-04-15T02:37:53.835Z,76.89
2023-04-15T02:38:53.833Z,76.78
2023-04-15T02:39:53.839Z,76.68
2023-04-15T02:40:53.839Z,76.58
2023-04-15T02:41:53.841Z,76.78
2023-04-15T02:42:53.843Z,76.58
2023-04-15T02:43:53.839Z,76.82
2023-04-15T02:44:53.831Z,77.64
2023-04-15T02:45:53.881Z,77.64
2023-04-15T02:46:53.868Z,77.74
2023-04-15T02:47:53.920Z,77.54
2023-04-15T02:48:53.899Z,78.16
2023-04-15T02:49:53.893Z,78.25
2023-04-15T02:50:53.899Z,77.84
2023-04-15T02:51:53.917Z,77.74
2023-04-15T02:52:53.928Z,77.74
2023-04-15T02:53:53.913Z,77.23
2023-04-15T02:54:53.910Z,77.09
2023-04-15T02:55:53.934Z,77.33
2023-04-15T02:56:53.944Z,77.03
2023-04-15T02:57:53.946Z,77.03
2023-04-15T02:58:53.949Z,76.92
2023-04-15T02:59:53.950Z,76.92
2023-04-15T03:00:53.936Z,77.23
2023-04-15T03:01:53.988Z,77.13
2023-04-15T03:02:54.043Z,77.13
2023-04-15T03:03:53.989Z,77.33
2023-04-15T03:04:54.004Z,77.54
2023-04-15T03:05:53.993Z,77.74
2023-04-15T03:06:53.986Z,78.46
2023-04-15T03:07:53.987Z,78.97
2023-04-15T03:08:54.013Z,78.46
2023-04-15T03:09:54.008Z,78.77
2023-04-15T03:10:53.992Z,78.77
2023-04-15T03:11:54.002Z,78.16
2023-04-15T03:12:54.004Z,78.16
2023-04-15T03:13:54.013Z,77.74
2023-04-15T03:14:54.012Z,78.56
2023-04-15T03:15:54.054Z,78.25
2023-04-15T03:16:54.038Z,78.50
2023-04-15T03:17:54.077Z,78.70
2023-04-15T03:18:54.051Z,79.08
2023-04-15T03:19:54.066Z,78.91
2023-04-15T03:20:54.043Z,79.22
2023-04-15T03:21:54.048Z,79.32
2023-04-15T03:22:54.013Z,79.38
2023-04-15T03:23:54.097Z,78.77
2023-04-15T03:24:54.126Z,78.05
2023-04-15T03:25:54.118Z,77.91
2023-04-15T03:26:54.170Z,77.61
2023-04-15T03:27:54.208Z,77.50
2023-04-15T03:28:54.243Z,77.81
2023-04-15T03:29:54.267Z,77.40
2023-04-15T03:30:54.289Z,77.84
2023-04-15T03:31:54.267Z,78.25
2023-04-15T03:32:54.276Z,78.02
2023-04-15T03:33:54.276Z,77.54
2023-04-15T03:34:54.269Z,78.05
2023-04-15T03:35:54.284Z,77.95
2023-04-15T03:36:54.293Z,77.40
2023-04-15T03:37:54.306Z,77.54
2023-04-15T03:38:54.314Z,78.05
2023-04-15T03:39:54.307Z,77.95
2023-04-15T03:40:54.309Z,77.64
2023-04-15T03:41:54.325Z,77.95
2023-04-15T03:42:54.311Z,77.95
2023-04-15T03:43:54.306Z,78.46
2023-04-15T03:44:54.293Z,78.05
2023-04-15T03:45:54.368Z,78.05
2023-04-15T03:46:54.424Z,77.54
2023-04-15T03:47:54.461Z,77.74
2023-04-15T03:48:54.469Z,77.84
2023-04-15T03:49:54.469Z,78.39
2023-04-15T03:50:54.471Z,78.29
2023-04-15T03:51:54.459Z,78.70
2023-04-15T03:52:54.531Z,79.01
2023-04-15T03:53:54.532Z,78.36
2023-04-15T03:54:54.598Z,77.64
2023-04-15T03:55:54.601Z,77.88
2023-04-15T03:56:54.581Z,78.70
2023-04-15T03:57:54.586Z,78.81
2023-04-15T03:58:54.572Z,78.91
2023-04-15T03:59:54.584Z,78.91
2023-04-15T04:00:54.573Z,78.70
2023-04-15T04:01:54.636Z,78.70
2023-04-15T04:02:54.682Z,79.01
2023-04-15T04:03:54.731Z,78.81
2023-04-15T04:04:54.722Z,78.39
2023-04-15T04:05:54.690Z,78.91
2023-04-15T04:06:54.694Z,79.11
2023-04-15T04:07:54.677Z,79.01
2023-04-15T04:08:54.682Z,78.70
2023-04-15T04:09:54.725Z,78.36
2023-04-15T04:10:54.733Z,78.16
2023-04-15T04:11:54.758Z,78.29
2023-04-15T04:12:54.789Z,78.70
2023-04-15T04:13:54.820Z,79.25
2023-04-15T04:14:54.839Z,79.36
2023-04-15T04:15:54.863Z,79.63
2023-04-15T04:16:54.902Z,79.42
2023-04-15T04:17:54.925Z,79.52
2023-04-15T04:18:54.910Z,79.32
2023-04-15T04:19:54.918Z,79.22
2023-04-15T04:20:54.922Z,78.91
2023-04-15T04:21:54.925Z,78.91
2023-04-15T04:22:54.948Z,78.70
2023-04-15T04:23:54.961Z,79.11
2023-04-15T04:24:54.975Z,79.11
2023-04-15T04:25:54.986Z,78.81
2023-04-15T04:26:54.984Z,78.81
2023-04-15T04:27:55.016Z,78.91
2023-04-15T04:28:55.025Z,78.81
2023-04-15T04:29:55.051Z,79.46
2023-04-15T04:30:55.082Z,79.46
2023-04-15T04:31:55.166Z,79.52
2023-04-15T04:32:55.240Z,79.56
2023-04-15T04:33:55.212Z,80.18
2023-04-15T04:34:55.207Z,80.07
2023-04-15T04:35:55.203Z,80.28
2023-04-15T04:36:55.221Z,80.04
2023-04-15T04:37:55.206Z,79.28
2023-04-15T04:38:55.216Z,78.87
2023-04-15T04:39:55.211Z,78.46
2023-04-15T04:40:55.223Z,79.18
2023-04-15T04:41:55.224Z,78.56
2023-04-15T04:42:55.242Z,78.46
2023-04-15T04:43:55.257Z,78.46
2023-04-15T04:44:55.301Z,78.36
2023-04-15T04:45:55.347Z,78.25
2023-04-15T04:46:55.346Z,78.97
2023-04-15T04:47:55.407Z,79.42
2023-04-15T04:48:55.430Z,79.52
2023-04-15T04:49:55.478Z,79.28
2023-04-15T04:50:55.521Z,78.77
2023-04-15T04:51:55.605Z,78.67
2023-04-15T04:52:55.572Z,78.67
2023-04-15T04:53:55.640Z,78.77
2023-04-15T04:54:55.697Z,79.28
2023-04-15T04:55:55.753Z,78.77
2023-04-15T04:56:55.803Z,78.77
2023-04-15T04:57:55.885Z,78.67
2023-04-15T04:58:55.875Z,78.77
2023-04-15T04:59:55.879Z,78.32
2023-04-15T05:00:56.005Z,77.91
2023-04-15T05:01:56.055Z,78.22
2023-04-15T05:02:56.170Z,77.47
2023-04-15T05:03:56.165Z,77.16
2023-04-15T05:04:56.124Z,76.92
2023-04-15T05:05:56.159Z,77.26
2023-04-15T05:06:56.176Z,77.36
2023-04-15T05:07:56.248Z,77.57
2023-04-15T05:08:56.257Z,77.67
2023-04-15T05:09:56.248Z,78.25
2023-04-15T05:10:56.244Z,78.97
2023-04-15T05:11:56.288Z,79.18
2023-04-15T05:12:56.297Z,79.08
2023-04-15T05:13:56.326Z,79.38
2023-04-15T05:14:56.344Z,79.28
2023-04-15T05:15:56.421Z,79.32
2023-04-15T05:16:56.399Z,79.69
2023-04-15T05:17:56.465Z,79.38
2023-04-15T05:18:56.422Z,79.08
2023-04-15T05:19:56.422Z,78.97
2023-04-15T05:20:56.428Z,78.77
2023-04-15T05:21:56.470Z,78.56
2023-04-15T05:22:56.550Z,78.97
2023-04-15T05:23:56.568Z,79.49
2023-04-15T05:24:56.622Z,79.49
2023-04-15T05:25:56.651Z,79.83
2023-04-15T05:26:56.697Z,79.69
2023-04-15T05:27:56.755Z,79.93
2023-04-15T05:28:56.790Z,79.80
2023-04-15T05:29:56.837Z,79.69
2023-04-15T05:30:56.861Z,78.94
2023-04-15T05:31:56.842Z,78.83
2023-04-15T05:32:56.956Z,78.49
2023-04-15T05:33:56.866Z,78.32
2023-04-15T05:34:56.896Z,78.70
2023-04-15T05:35:56.953Z,77.98
2023-04-15T05:36:56.985Z,78.08
2023-04-15T05:37:57.073Z,77.81
2023-04-15T05:38:57.098Z,78.83
2023-04-15T05:39:57.127Z,79.49
2023-04-15T05:40:57.201Z,79.55
2023-04-15T05:41:57.189Z,78.70
2023-04-15T05:42:57.202Z,78.39
2023-04-15T05:43:57.257Z,77.98
2023-04-15T05:44:57.239Z,77.94
2023-04-15T05:45:57.302Z,77.53
2023-04-15T05:46:57.243Z,77.09
2023-04-15T05:47:57.267Z,76.54
2023-04-15T05:48:57.257Z,76.13
2023-04-15T05:49:57.287Z,75.82
2023-04-15T05:50:57.294Z,75.93
2023-04-15T05:51:57.285Z,76.06
2023-04-15T05:52:57.282Z,76.78
2023-04-15T05:53:57.283Z,76.47
2023-04-15T05:54:57.309Z,76.72
2023-04-15T05:55:57.343Z,77.64
2023-04-15T05:56:57.357Z,77.50
2023-04-15T05:57:57.429Z,77.12
2023-04-15T05:58:57.482Z,77.84
2023-04-15T05:59:57.512Z,77.09
2023-04-15T06:00:57.539Z,76.95
2023-04-15T06:01:57.562Z,76.23
2023-04-15T06:02:57.644Z,76.34
2023-04-15T06:03:57.797Z,76.23
2023-04-15T06:04:57.741Z,76.13
2023-04-15T06:05:57.787Z,76.47
2023-04-15T06:06:57.783Z,76.88
2023-04-15T06:07:57.785Z,76.78
2023-04-15T06:08:57.759Z,76.43
2023-04-15T06:09:57.771Z,76.13
2023-04-15T06:10:57.833Z,76.37
2023-04-15T06:11:57.910Z,77.98
2023-04-15T06:12:57.917Z,78.59
2023-04-15T06:13:57.942Z,78.56
2023-04-15T06:14:59.925Z,78.45
2023-04-15T06:15:58.017Z,77.60
2023-04-15T06:16:57.983Z,77.53
2023-04-15T06:17:58.061Z,78.05
2023-04-15T06:18:58.034Z,78.28
2023-04-15T06:19:58.100Z,79.75
2023-04-15T06:20:58.076Z,80.37
2023-04-15T06:21:58.144Z,80.23
2023-04-15T06:22:58.213Z,79.52
2023-04-15T06:23:58.237Z,79.96
2023-04-15T06:24:58.268Z,80.23
2023-04-15T06:25:58.301Z,79.72
2023-04-15T06:26:58.334Z,80.33
2023-04-15T06:27:58.312Z,80.03
2023-04-15T06:28:58.435Z,80.17
2023-04-15T06:29:58.417Z,80.64
2023-04-15T06:30:58.438Z,80.51
2023-04-15T06:31:58.525Z,79.44
2023-04-15T06:32:58.501Z,79.75
2023-04-15T06:33:58.498Z,79.13
2023-04-15T06:34:58.549Z,79.20
2023-04-15T06:35:58.613Z,78.79
2023-04-15T06:36:58.636Z,78.89
2023-04-15T06:37:58.654Z,78.86
2023-04-15T06:38:58.643Z,78.65
2023-04-15T06:39:58.660Z,78.34
2023-04-15T06:40:58.717Z,78.52
2023-04-15T06:41:58.726Z,79.99
2023-04-15T06:42:58.737Z,81.60
2023-04-15T06:43:58.743Z,81.57
2023-04-15T06:44:58.800Z,81.57
2023-04-15T06:45:58.874Z,81.98
2023-04-15T06:46:58.880Z,81.77
2023-04-15T06:47:58.937Z,82.26
2023-04-15T06:48:58.993Z,83.04
2023-04-15T06:49:59.004Z,83.07
2023-04-15T06:50:59.009Z,83.63
2023-04-15T06:51:59.003Z,84.14
2023-04-15T06:52:59.025Z,84.66
2023-04-15T06:53:59.030Z,84.00
2023-04-15T06:54:59.063Z,83.83
2023-04-15T06:55:59.070Z,83.80
2023-04-15T06:56:59.075Z,84.20
2023-04-15T06:57:59.077Z,84.00
2023-04-15T06:58:59.152Z,84.31
2023-04-15T06:59:59.117Z,84.41
2023-04-15T07:00:59.159Z,83.55
2023-04-15T07:01:59.165Z,83.65
2023-04-15T07:02:59.179Z,83.76
2023-04-15T07:03:59.212Z,83.51
2023-04-15T07:04:59.310Z,82.90
2023-04-15T07:05:59.299Z,82.93
2023-04-15T07:06:59.263Z,83.51
2023-04-15T07:07:59.331Z,83.41
2023-04-15T07:08:59.341Z,83.27
2023-04-15T07:09:59.367Z,82.08
2023-04-15T07:10:59.498Z,82.49
2023-04-15T07:11:59.449Z,83.34
2023-04-15T07:12:59.507Z,83.65
2023-04-15T07:13:59.542Z,84.20
2023-04-15T07:14:59.540Z,84.61
2023-04-15T07:15:59.552Z,84.41
2023-04-15T07:16:59.595Z,85.00
2023-04-15T07:17:59.573Z,86.09
2023-04-15T07:18:59.901Z,85.17
2023-04-15T07:19:59.558Z,85.68
2023-04-15T07:20:59.546Z,85.58
2023-04-15T07:21:59.522Z,85.27
2023-04-15T07:22:59.619Z,85.64
2023-04-15T07:23:59.625Z,85.44
2023-04-15T07:24:59.692Z,84.68
2023-04-15T07:25:59.718Z,84.27
2023-04-15T07:27:01.222Z,84.23
2023-04-15T07:27:59.815Z,83.82
2023-04-15T07:29:00.164Z,83.61
2023-04-15T07:29:59.878Z,83.92
2023-04-15T07:30:59.945Z,84.53
2023-04-15T07:31:59.920Z,84.37
2023-04-15T07:32:59.966Z,84.78
2023-04-15T07:33:59.951Z,84.99
2023-04-15T07:34:59.942Z,85.09
2023-04-15T07:36:00.007Z,84.84
2023-04-15T07:37:00.049Z,83.72
2023-04-15T07:38:00.090Z,83.96
2023-04-15T07:39:00.447Z,84.68
2023-04-15T07:40:00.181Z,84.92
2023-04-15T07:41:00.150Z,86.30
2023-04-15T07:42:00.182Z,85.95
2023-04-15T07:43:00.190Z,85.09
2023-04-15T07:44:00.229Z,84.78
2023-04-15T07:45:00.295Z,85.15
2023-04-15T07:46:00.423Z,84.95
2023-04-15T07:47:00.343Z,83.68
2023-04-15T07:48:00.399Z,84.03
2023-04-15T07:49:00.929Z,84.44
2023-04-15T07:50:00.476Z,84.23
2023-04-15T07:51:00.547Z,84.12
2023-04-15T07:52:00.608Z,84.78
2023-04-15T07:53:00.650Z,85.15
2023-04-15T07:54:00.721Z,84.70
2023-04-15T07:55:00.779Z,84.29
2023-04-15T07:56:00.835Z,84.29
2023-04-15T07:57:00.833Z,84.39
2023-04-15T07:58:00.872Z,84.80
2023-04-15T07:59:01.218Z,84.46
2023-04-15T08:00:00.974Z,83.95
2023-04-15T08:01:01.028Z,84.15
2023-04-15T08:02:01.139Z,83.84
2023-04-15T08:03:01.194Z,83.64
2023-04-15T08:04:01.234Z,83.37
2023-04-15T08:05:01.192Z,84.29
2023-04-15T08:06:01.215Z,84.39
2023-04-15T08:07:01.244Z,85.11
2023-04-15T08:08:01.273Z,84.70
2023-04-15T08:09:01.513Z,84.25
2023-04-15T08:10:01.318Z,84.22
2023-04-15T08:11:01.343Z,83.60
2023-04-15T08:12:01.361Z,83.66
2023-04-15T08:13:01.536Z,83.05
2023-04-15T08:14:01.483Z,83.19
2023-04-15T08:15:01.516Z,83.54
2023-04-15T08:16:01.577Z,83.88
2023-04-15T08:17:01.613Z,85.01
2023-04-15T08:18:01.639Z,84.93
2023-04-15T08:19:01.846Z,84.22
2023-04-15T08:20:01.727Z,84.31
2023-04-15T08:21:01.783Z,84.31
2023-04-15T08:22:01.838Z,83.76
2023-04-15T08:23:01.891Z,83.19
2023-04-15T08:24:01.973Z,84.11
2023-04-15T08:25:01.960Z,84.38
2023-04-15T08:26:01.942Z,83.87
2023-04-15T08:27:01.977Z,83.50
2023-04-15T08:28:01.976Z,83.81
2023-04-15T08:29:02.540Z,83.95
2023-04-15T08:30:04.702Z,84.46
2023-04-15T08:31:02.012Z,85.03
2023-04-15T08:32:02.059Z,84.83
2023-04-15T08:33:02.242Z,84.97
2023-04-15T08:34:02.144Z,84.97
2023-04-15T08:35:02.875Z,84.93
2023-04-15T08:36:02.110Z,84.89
2023-04-15T08:37:02.407Z,84.42
2023-04-15T08:38:02.209Z,84.17
2023-04-15T08:39:02.422Z,84.31
2023-04-15T08:40:02.315Z,84.52
2023-04-15T08:41:02.348Z,84.52
2023-04-15T08:42:02.410Z,85.42
2023-04-15T08:43:02.377Z,86.10
2023-04-15T08:44:02.589Z,85.81
2023-04-15T08:45:02.719Z,84.42
2023-04-15T08:46:02.571Z,85.28
2023-04-15T08:47:02.840Z,85.14
2023-04-15T08:48:02.682Z,85.38
2023-04-15T08:49:02.830Z,85.99
2023-04-15T08:50:02.645Z,86.05
2023-04-15T08:51:02.670Z,85.75
2023-04-15T08:52:02.716Z,85.44
2023-04-15T08:53:02.771Z,85.91
2023-04-15T08:54:02.811Z,85.20
2023-04-15T08:55:02.857Z,84.93
2023-04-15T08:56:02.892Z,85.81
2023-04-15T08:57:03.057Z,85.30
2023-04-15T08:58:02.935Z,84.89
2023-04-15T08:59:03.171Z,85.14
2023-04-15T09:00:04.793Z,85.85
2023-04-15T09:01:03.059Z,85.75
2023-04-15T09:02:03.117Z,85.69
2023-04-15T09:03:03.250Z,86.10
2023-04-15T09:04:03.196Z,85.89
2023-04-15T09:05:03.154Z,86.61
2023-04-15T09:06:03.208Z,86.57
2023-04-15T09:07:03.233Z,85.48
2023-04-15T09:08:03.299Z,86.10
2023-04-15T09:09:03.586Z,87.02
2023-04-15T09:10:03.399Z,86.85
2023-04-15T09:11:03.474Z,87.02
2023-04-15T09:12:03.552Z,86.16
2023-04-15T09:13:03.508Z,86.20
2023-04-15T09:14:04.449Z,86.51
2023-04-15T09:15:03.537Z,86.40
2023-04-15T09:16:03.606Z,86.81
2023-04-15T09:17:03.676Z,86.96
2023-04-15T09:18:03.622Z,87.67
2023-04-15T09:19:03.755Z,87.61
2023-04-15T09:20:03.683Z,88.02
2023-04-15T09:21:03.736Z,88.35
2023-04-15T09:22:03.776Z,87.06
2023-04-15T09:23:03.824Z,87.77
2023-04-15T09:24:04.130Z,87.88
2023-04-15T09:25:03.921Z,87.67
2023-04-15T09:26:04.006Z,87.94
2023-04-15T09:27:04.021Z,87.53
2023-04-15T09:28:04.075Z,86.67
2023-04-15T09:29:04.021Z,86.96
2023-04-15T09:30:04.024Z,88.08
2023-04-15T09:31:04.267Z,88.14
2023-04-15T09:32:04.923Z,87.94
2023-04-15T09:33:04.189Z,87.08
2023-04-15T09:34:04.377Z,86.83
2023-04-15T09:35:04.216Z,86.69
2023-04-15T09:36:04.247Z,85.97
2023-04-15T09:37:04.264Z,85.75
2023-04-15T09:38:04.240Z,86.61
2023-04-15T09:39:04.292Z,87.63
2023-04-15T09:40:05.008Z,87.94
2023-04-15T09:41:05.350Z,87.84
2023-04-15T09:42:04.412Z,87.63
2023-04-15T09:43:04.421Z,87.98
2023-04-15T09:44:04.412Z,87.94
2023-04-15T09:45:04.431Z,87.77
2023-04-15T09:46:04.489Z,88.18
2023-04-15T09:47:04.441Z,88.24
2023-04-15T09:48:04.525Z,88.35
2023-04-15T09:49:04.486Z,87.59
2023-04-15T09:50:04.512Z,86.98
2023-04-15T09:51:04.543Z,86.77
2023-04-15T09:52:06.189Z,86.98
2023-04-15T09:53:04.594Z,87.70
2023-04-15T09:54:04.605Z,87.29
2023-04-15T09:55:04.666Z,87.53
2023-04-15T09:56:04.660Z,88.10
2023-04-15T09:57:04.720Z,87.32
2023-04-15T09:58:04.723Z,88.18
2023-04-15T09:59:04.749Z,88.18
2023-04-15T10:00:04.753Z,88.65
2023-04-15T10:01:04.865Z,88.62
2023-04-15T10:02:04.913Z,87.49
2023-04-15T10:03:05.143Z,87.45
2023-04-15T10:04:05.303Z,86.94
2023-04-15T10:05:04.991Z,87.49
2023-04-15T10:06:05.037Z,87.49
2023-04-15T10:07:05.079Z,87.49
2023-04-15T10:08:05.127Z,88.10
2023-04-15T10:09:05.164Z,87.76
2023-04-15T10:10:05.220Z,87.24
2023-04-15T10:11:05.456Z,86.83
2023-04-15T10:12:05.266Z,86.83
2023-04-15T10:13:05.241Z,86.18
2023-04-15T10:14:05.258Z,86.38
2023-04-15T10:15:05.279Z,85.63
2023-04-15T10:16:05.381Z,85.61
2023-04-15T10:17:05.360Z,87.32
2023-04-15T10:18:05.452Z,88.10
2023-04-15T10:19:05.398Z,87.76
2023-04-15T10:20:05.583Z,87.29
2023-04-15T10:21:05.435Z,87.90
2023-04-15T10:22:05.518Z,87.49
2023-04-15T10:23:06.892Z,87.96
2023-04-15T10:24:05.584Z,87.71
2023-04-15T10:25:05.639Z,86.38
2023-04-15T10:26:05.657Z,86.18
2023-04-15T10:27:05.712Z,87.00
2023-04-15T10:28:05.767Z,86.49
2023-04-15T10:29:05.752Z,86.38
2023-04-15T10:30:05.813Z,86.90
2023-04-15T10:31:06.825Z,86.49
2023-04-15T10:32:05.955Z,85.97
2023-04-15T10:33:05.964Z,86.94
2023-04-15T10:34:06.021Z,87.45
2023-04-15T10:35:06.039Z,87.55
2023-04-15T10:36:06.116Z,87.35
2023-04-15T10:37:06.163Z,87.24
2023-04-15T10:38:06.129Z,87.14
2023-04-15T10:39:06.159Z,86.43
2023-04-15T10:40:06.159Z,87.79
2023-04-15T10:41:06.162Z,88.17
2023-04-15T10:42:06.150Z,87.85
2023-04-15T10:43:06.165Z,87.20
2023-04-15T10:44:06.279Z,87.00
2023-04-15T10:45:06.230Z,87.51
2023-04-15T10:46:06.297Z,86.90
2023-04-15T10:47:06.321Z,86.44
2023-04-15T10:48:06.404Z,86.90
2023-04-15T10:49:06.422Z,87.00
2023-04-15T10:50:06.427Z,87.20
2023-04-15T10:51:06.481Z,86.90
2023-04-15T10:52:06.549Z,87.41
2023-04-15T10:53:06.713Z,87.10
2023-04-15T10:54:06.899Z,87.30
2023-04-15T10:55:06.766Z,87.20
2023-04-15T10:56:06.658Z,87.65
2023-04-15T10:57:06.713Z,87.65
2023-04-15T10:58:06.765Z,87.71
2023-04-15T10:59:06.694Z,87.10
2023-04-15T11:00:06.778Z,87.71
2023-04-15T11:01:06.843Z,88.17
2023-04-15T11:02:07.022Z,88.51
2023-04-15T11:03:07.211Z,88.57
2023-04-15T11:04:07.313Z,88.12
2023-04-15T11:05:07.068Z,87.47
2023-04-15T11:06:07.050Z,87.10
2023-04-15T11:07:07.087Z,87.00
2023-04-15T11:08:07.060Z,87.85
2023-04-15T11:09:07.135Z,88.84
2023-04-15T11:10:07.162Z,87.98
2023-04-15T11:11:07.227Z,87.88
2023-04-15T11:12:07.208Z,87.06
2023-04-15T11:13:07.242Z,87.12
2023-04-15T11:14:07.268Z,86.04
2023-04-15T11:15:07.289Z,87.41
2023-04-15T11:16:07.334Z,87.10
2023-04-15T11:17:07.317Z,87.51
2023-04-15T11:18:07.393Z,87.92
2023-04-15T11:19:07.371Z,88.29
2023-04-15T11:20:07.378Z,87.37
2023-04-15T11:21:07.449Z,87.30
2023-04-15T11:22:07.523Z,87.96
2023-04-15T11:23:14.349Z,88.68
2023-04-15T11:24:07.806Z,88.64
2023-04-15T11:25:07.544Z,88.08
2023-04-15T11:26:07.613Z,87.06
2023-04-15T11:27:07.670Z,87.88
2023-04-15T11:28:07.659Z,87.57
2023-04-15T11:29:07.661Z,87.92
2023-04-15T11:30:07.694Z,88.12
2023-04-15T11:31:08.637Z,88.64
2023-04-15T11:32:07.796Z,88.18
2023-04-15T11:33:07.756Z,87.73
2023-04-15T11:34:07.822Z,87.32
2023-04-15T11:35:07.753Z,88.29
2023-04-15T11:36:07.825Z,87.94
2023-04-15T11:37:07.871Z,87.88
2023-04-15T11:38:07.897Z,88.02
2023-04-15T11:39:07.910Z,88.02
2023-04-15T11:40:08.079Z,88.12
2023-04-15T11:41:09.202Z,88.18
2023-04-15T11:42:07.936Z,88.29
2023-04-15T11:43:07.954Z,88.04
2023-04-15T11:44:07.961Z,87.67
2023-04-15T11:45:07.997Z,87.67
2023-04-15T11:46:08.059Z,87.23
2023-04-15T11:47:08.037Z,87.12
2023-04-15T11:48:08.072Z,86.82
2023-04-15T11:49:08.100Z,86.88
2023-04-15T11:50:08.117Z,86.51
2023-04-15T11:51:08.138Z,86.61
2023-04-15T11:52:08.132Z,87.61
2023-04-15T11:53:08.652Z,88.59
2023-04-15T11:54:08.218Z,87.47
2023-04-15T11:55:08.265Z,87.23
2023-04-15T11:56:08.271Z,87.37
2023-04-15T11:57:08.257Z,87.84
2023-04-15T11:58:08.289Z,87.43
2023-04-15T11:59:08.297Z,86.76
2023-04-15T12:00:08.302Z,87.16
2023-04-15T12:01:08.333Z,87.51
2023-04-15T12:02:08.526Z,87.77
2023-04-15T12:03:08.580Z,88.08
2023-04-15T12:04:08.684Z,87.88
2023-04-15T12:05:08.480Z,87.88
2023-04-15T12:06:08.462Z,86.91
2023-04-15T12:07:08.482Z,86.71
2023-04-15T12:08:08.481Z,86.73
2023-04-15T12:09:08.496Z,85.82
2023-04-15T12:10:08.511Z,85.71
2023-04-15T12:11:08.525Z,85.55
2023-04-15T12:12:08.548Z,86.20
2023-04-15T12:13:08.531Z,86.82
2023-04-15T12:14:08.542Z,87.02
2023-04-15T12:15:08.551Z,86.91
2023-04-15T12:16:08.587Z,86.76
2023-04-15T12:17:08.587Z,87.67
2023-04-15T12:18:08.667Z,87.16
2023-04-15T12:19:08.656Z,87.26
2023-04-15T12:20:08.697Z,87.57
2023-04-15T12:21:08.705Z,87.57
2023-04-15T12:22:08.699Z,87.16
2023-04-15T12:23:08.729Z,87.57
2023-04-15T12:24:08.765Z,87.12
2023-04-15T12:25:08.816Z,86.91
2023-04-15T12:26:08.820Z,86.71
2023-04-15T12:27:08.861Z,86.41
2023-04-15T12:28:08.852Z,86.26
2023-04-15T12:29:08.846Z,86.91
2023-04-15T12:30:08.854Z,86.71
2023-04-15T12:31:08.909Z,86.82
2023-04-15T12:32:08.966Z,87.12
2023-04-15T12:33:09.055Z,87.12
2023-04-15T12:34:09.066Z,87.02
2023-04-15T12:35:09.092Z,86.71
2023-04-15T12:36:09.101Z,87.26
2023-04-15T12:37:09.157Z,87.77
2023-04-15T12:38:09.171Z,88.23
2023-04-15T12:39:09.195Z,88.59
2023-04-15T12:40:09.240Z,88.43
2023-04-15T12:41:09.273Z,88.29
2023-04-15T12:42:09.282Z,87.77
2023-04-15T12:43:09.320Z,87.98
2023-04-15T12:44:09.362Z,87.88
2023-04-15T12:45:09.351Z,87.47
2023-04-15T12:46:09.452Z,87.77
2023-04-15T12:47:09.499Z,87.23
2023-04-15T12:48:09.493Z,87.29
2023-04-15T12:49:09.506Z,86.77
2023-04-15T12:50:09.554Z,86.47
2023-04-15T12:51:09.564Z,86.51
2023-04-15T12:52:09.590Z,87.38
2023-04-15T12:53:09.632Z,86.91